createdAt,value
2022-12-18T00:00:34.499Z,99126.22
2022-12-18T00:03:03.856Z,99130.41
2022-12-18T00:05:08.477Z,99127.78
2022-12-18T00:07:11.514Z,99131.13
2022-12-18T00:09:14.749Z,99126.84
2022-12-18T00:11:20.047Z,99129.38
2022-12-18T00:13:24.473Z,99126.00
2022-12-18T00:15:27.908Z,99126.00
2022-12-18T00:17:30.907Z,99137.03
2022-12-18T00:19:34.072Z,99136.19
2022-12-18T00:21:37.110Z,99145.53
2022-12-18T00:23:41.634Z,99137.94
2022-12-18T00:25:45.115Z,99138.69
2022-12-18T00:27:48.212Z,99138.59
2022-12-18T00:29:52.922Z,99131.75
2022-12-18T00:31:55.937Z,99130.06
2022-12-18T00:33:59.436Z,99130.84
2022-12-18T00:36:03.053Z,99124.09
2022-12-18T00:38:07.296Z,99127.50
2022-12-18T00:40:11.978Z,99128.44
2022-12-18T00:42:32.930Z,99133.50
2022-12-18T00:44:35.875Z,99131.78
2022-12-18T00:46:40.394Z,99136.03
2022-12-18T00:48:44.020Z,99135.16
2022-12-18T00:50:49.730Z,99129.19
2022-12-18T00:52:53.279Z,99135.13
2022-12-18T00:54:56.339Z,99128.34
2022-12-18T00:56:59.456Z,99116.53
2022-12-18T00:59:02.517Z,99119.09
2022-12-18T01:01:06.157Z,99116.63
2022-12-18T01:03:15.011Z,99122.56
2022-12-18T01:05:20.535Z,99131.88
2022-12-18T01:07:23.615Z,99137.84
2022-12-18T01:09:29.742Z,99142.00
2022-12-18T01:11:33.339Z,99139.44
2022-12-18T01:13:36.765Z,99135.94
2022-12-18T01:15:40.866Z,99136.72
2022-12-18T01:17:46.707Z,99123.84
2022-12-18T01:19:51.308Z,99122.91
2022-12-18T01:21:54.347Z,99123.63
2022-12-18T01:23:57.943Z,99127.03
2022-12-18T01:26:06.594Z,99128.78
2022-12-18T01:28:12.089Z,99130.53
2022-12-18T01:30:15.313Z,99145.81
2022-12-18T01:32:21.601Z,99140.78
2022-12-18T01:34:24.686Z,99154.44
2022-12-18T01:36:30.732Z,99153.66
2022-12-18T01:38:33.979Z,99157.91
2022-12-18T01:40:37.176Z,99154.56
2022-12-18T01:42:40.304Z,99153.72
2022-12-18T01:45:07.846Z,99161.34
2022-12-18T01:47:10.964Z,99160.53
2022-12-18T01:49:14.014Z,99155.47
2022-12-18T01:51:17.383Z,99150.38
2022-12-18T01:53:24.707Z,99150.41
2022-12-18T01:55:30.601Z,99145.34
2022-12-18T01:57:33.988Z,99145.34
2022-12-18T01:59:37.897Z,99142.88
2022-12-18T02:01:41.193Z,99146.19
2022-12-18T02:03:46.925Z,99142.84
2022-12-18T02:05:57.988Z,99140.31
2022-12-18T02:08:08.472Z,99142.03
2022-12-18T02:10:18.012Z,99147.13
2022-12-18T02:12:23.238Z,99156.41
2022-12-18T02:14:31.380Z,99155.63
2022-12-18T02:16:41.486Z,99147.16
2022-12-18T02:18:49.442Z,99148.03
2022-12-18T02:20:57.694Z,99147.06
2022-12-18T02:23:10.117Z,99153.72
2022-12-18T02:25:27.037Z,99157.78
2022-12-18T02:27:32.988Z,99155.13
2022-12-18T02:29:41.244Z,99164.22
2022-12-18T02:31:47.321Z,99158.97
2022-12-18T02:33:51.815Z,99155.47
2022-12-18T02:35:56.303Z,99152.09
2022-12-18T02:38:00.252Z,99147.88
2022-12-18T02:40:08.004Z,99138.66
2022-12-18T02:42:14.185Z,99135.38
2022-12-18T02:44:18.665Z,99147.22
2022-12-18T02:46:40.286Z,99158.22
2022-12-18T02:48:48.026Z,99158.06
2022-12-18T02:50:55.423Z,99163.16
2022-12-18T02:53:08.803Z,99161.44
2022-12-18T02:55:20.938Z,99163.91
2022-12-18T02:57:36.819Z,99158.78
2022-12-18T02:59:44.429Z,99162.13
2022-12-18T03:01:53.570Z,99176.63
2022-12-18T03:03:59.573Z,99187.66
2022-12-18T03:06:05.965Z,99179.16
2022-12-18T03:08:12.582Z,99172.47
2022-12-18T03:10:19.316Z,99176.75
2022-12-18T03:12:28.983Z,99176.00
2022-12-18T03:14:36.236Z,99171.78
2022-12-18T03:16:42.534Z,99176.06
2022-12-18T03:18:49.060Z,99182.84
2022-12-18T03:20:53.846Z,99185.34
2022-12-18T03:23:03.396Z,99180.34
2022-12-18T03:25:08.520Z,99182.97
2022-12-18T03:27:15.210Z,99173.75
2022-12-18T03:29:21.127Z,99175.44
2022-12-18T03:31:25.876Z,99185.66
2022-12-18T03:33:33.947Z,99190.00
2022-12-18T03:35:41.214Z,99199.38
2022-12-18T03:37:44.822Z,99201.25
2022-12-18T03:39:48.651Z,99197.09
2022-12-18T03:41:58.685Z,99200.53
2022-12-18T03:44:14.458Z,99202.34
2022-12-18T03:46:28.097Z,99208.28
2022-12-18T03:48:36.523Z,99198.25
2022-12-18T03:50:48.654Z,99197.50
2022-12-18T03:52:57.148Z,99201.75
2022-12-18T03:55:01.508Z,99206.09
2022-12-18T03:57:08.856Z,99201.91
2022-12-18T03:59:14.812Z,99197.75
2022-12-18T04:01:20.686Z,99201.16
2022-12-18T04:03:26.546Z,99203.75
2022-12-18T04:05:32.340Z,99209.66
2022-12-18T04:07:36.185Z,99201.25
2022-12-18T04:09:43.324Z,99199.56
2022-12-18T04:11:48.126Z,99190.25
2022-12-18T04:13:58.198Z,99200.38
2022-12-18T04:16:02.716Z,99197.84
2022-12-18T04:18:06.693Z,99194.44
2022-12-18T04:20:18.156Z,99208.00
2022-12-18T04:22:23.948Z,99204.59
2022-12-18T04:24:32.273Z,99201.16
2022-12-18T04:26:48.177Z,99206.19
2022-12-18T04:28:54.765Z,99201.09
2022-12-18T04:30:58.201Z,99213.81
2022-12-18T04:33:01.890Z,99212.97
2022-12-18T04:35:11.468Z,99215.56
2022-12-18T04:37:16.007Z,99203.66
2022-12-18T04:39:21.144Z,99201.91
2022-12-18T04:41:26.403Z,99195.88
2022-12-18T04:43:30.411Z,99210.28
2022-12-18T04:45:33.459Z,99217.03
2022-12-18T04:47:36.447Z,99215.41
2022-12-18T04:49:39.420Z,99220.41
2022-12-18T04:51:42.589Z,99212.69
2022-12-18T04:53:45.613Z,99205.13
2022-12-18T04:55:50.132Z,99219.50
2022-12-18T04:57:53.211Z,99226.31
2022-12-18T04:59:56.280Z,99221.25
2022-12-18T05:01:59.487Z,99228.91
2022-12-18T05:04:02.804Z,99234.88
2022-12-18T05:06:06.825Z,99224.72
2022-12-18T05:08:09.947Z,99219.53
2022-12-18T05:10:13.020Z,99217.72
2022-12-18T05:12:17.498Z,99214.31
2022-12-18T05:14:21.129Z,99212.63
2022-12-18T05:16:24.126Z,99215.13
2022-12-18T05:18:27.688Z,99215.94
2022-12-18T05:20:30.934Z,99214.13
2022-12-18T05:22:33.959Z,99214.00
2022-12-18T05:24:37.098Z,99210.56
2022-12-18T05:26:40.131Z,99216.50
2022-12-18T05:28:46.974Z,99217.25
2022-12-18T05:30:51.705Z,99221.41
2022-12-18T05:32:54.685Z,99216.38
2022-12-18T05:34:58.752Z,99216.38
2022-12-18T05:37:01.747Z,99212.97
2022-12-18T05:39:06.285Z,99204.56
2022-12-18T05:41:10.608Z,99207.88
2022-12-18T05:43:19.376Z,99211.22
2022-12-18T05:45:25.620Z,99217.22
2022-12-18T05:47:29.013Z,99218.09
2022-12-18T05:49:32.336Z,99224.03
2022-12-18T05:51:35.340Z,99224.09
2022-12-18T05:53:39.136Z,99219.91
2022-12-18T05:55:43.586Z,99229.31
2022-12-18T05:57:46.791Z,99235.28
2022-12-18T05:59:49.948Z,99234.53
2022-12-18T06:01:59.404Z,99241.34
2022-12-18T06:04:02.696Z,99241.41
2022-12-18T06:06:14.098Z,99233.06
2022-12-18T06:08:19.835Z,99241.50
2022-12-18T06:10:22.829Z,99244.03
2022-12-18T06:12:25.850Z,99244.91
2022-12-18T06:14:29.355Z,99245.78
2022-12-18T06:16:33.021Z,99239.84
2022-12-18T06:18:40.303Z,99240.75
2022-12-18T06:20:43.922Z,99239.88
2022-12-18T06:22:47.144Z,99246.66
2022-12-18T06:24:50.100Z,99249.13
2022-12-18T06:26:53.220Z,99240.66
2022-12-18T06:28:56.315Z,99245.72
2022-12-18T06:30:59.283Z,99232.13
2022-12-18T06:33:02.395Z,99241.41
2022-12-18T06:35:08.189Z,99243.06
2022-12-18T06:37:11.177Z,99241.34
2022-12-18T06:39:14.387Z,99245.63
2022-12-18T06:41:19.263Z,99250.69
2022-12-18T06:43:22.305Z,99246.41
2022-12-18T06:45:25.484Z,99248.09
2022-12-18T06:47:28.620Z,99242.94
2022-12-18T06:49:31.664Z,99242.97
2022-12-18T06:51:38.229Z,99251.41
2022-12-18T06:53:41.625Z,99248.03
2022-12-18T06:55:44.857Z,99247.06
2022-12-18T06:57:47.884Z,99248.69
2022-12-18T06:59:50.942Z,99246.03
2022-12-18T07:01:54.273Z,99246.88
2022-12-18T07:03:58.764Z,99251.88
2022-12-18T07:06:02.275Z,99253.59
2022-12-18T07:08:07.316Z,99261.97
2022-12-18T07:10:11.306Z,99267.84
2022-12-18T07:12:14.961Z,99258.50
2022-12-18T07:14:18.035Z,99269.47
2022-12-18T07:16:25.371Z,99262.72
2022-12-18T07:18:28.891Z,99259.31
2022-12-18T07:20:32.020Z,99272.97
2022-12-18T07:22:35.077Z,99280.53
2022-12-18T07:24:39.549Z,99278.91
2022-12-18T07:26:42.582Z,99284.13
2022-12-18T07:28:45.873Z,99284.94
2022-12-18T07:30:48.970Z,99281.56
2022-12-18T07:32:52.055Z,99290.97
2022-12-18T07:34:55.124Z,99290.16
2022-12-18T07:36:58.230Z,99287.59
2022-12-18T07:39:01.347Z,99289.31
2022-12-18T07:41:07.677Z,99288.44
2022-12-18T07:43:10.893Z,99296.97
2022-12-18T07:45:13.869Z,99302.91
2022-12-18T07:47:16.821Z,99315.75
2022-12-18T07:49:19.873Z,99305.66
2022-12-18T07:51:22.945Z,99309.91
2022-12-18T07:53:26.052Z,99314.28
2022-12-18T07:55:35.338Z,99320.47
2022-12-18T07:57:55.421Z,99320.66
2022-12-18T08:00:02.479Z,99331.88
2022-12-18T08:02:16.336Z,99325.31
2022-12-18T08:04:40.605Z,99331.47
2022-12-18T08:06:47.530Z,99336.72
2022-12-18T08:08:51.124Z,99346.16
2022-12-18T08:10:54.348Z,99336.91
2022-12-18T08:13:03.148Z,99343.81
2022-12-18T08:15:09.107Z,99342.19
2022-12-18T08:17:12.187Z,99336.25
2022-12-18T08:19:15.440Z,99329.47
2022-12-18T08:21:21.356Z,99327.00
2022-12-18T08:23:28.552Z,99330.44
2022-12-18T08:25:31.889Z,99337.25
2022-12-18T08:27:35.021Z,99336.47
2022-12-18T08:29:39.527Z,99334.00
2022-12-18T08:31:42.700Z,99335.81
2022-12-18T08:33:45.784Z,99335.06
2022-12-18T08:35:50.019Z,99345.34
2022-12-18T08:37:53.035Z,99347.09
2022-12-18T08:39:56.043Z,99350.53
2022-12-18T08:42:16.446Z,99343.75
2022-12-18T08:44:37.174Z,99353.19
2022-12-18T08:46:43.099Z,99352.34
2022-12-18T08:48:46.558Z,99342.16
2022-12-18T08:50:56.156Z,99344.72
2022-12-18T08:52:59.227Z,99349.00
2022-12-18T08:55:02.490Z,99342.19
2022-12-18T08:57:05.539Z,99348.97
2022-12-18T08:59:08.501Z,99351.53
2022-12-18T09:01:13.240Z,99354.97
2022-12-18T09:03:19.075Z,99361.75
2022-12-18T09:05:24.276Z,99363.47
2022-12-18T09:07:27.606Z,99348.97
2022-12-18T09:09:30.653Z,99351.53
2022-12-18T09:11:35.531Z,99345.56
2022-12-18T09:13:39.386Z,99340.47
2022-12-18T09:15:43.988Z,99338.72
2022-12-18T09:17:49.674Z,99332.78
2022-12-18T09:19:54.336Z,99334.47
2022-12-18T09:21:57.420Z,99332.75
2022-12-18T09:24:00.734Z,99330.19
2022-12-18T09:26:04.008Z,99332.69
2022-12-18T09:28:08.859Z,99332.66
2022-12-18T09:30:12.718Z,99333.50
2022-12-18T09:32:22.182Z,99328.38
2022-12-18T09:34:25.583Z,99321.53
2022-12-18T09:36:30.079Z,99327.47
2022-12-18T09:38:33.122Z,99325.72
2022-12-18T09:40:38.526Z,99324.84
2022-12-18T09:42:41.617Z,99322.25
2022-12-18T09:44:47.467Z,99324.78
2022-12-18T09:46:56.226Z,99324.72
2022-12-18T09:49:01.824Z,99326.38
2022-12-18T09:51:10.261Z,99321.22
2022-12-18T09:53:19.009Z,99324.63
2022-12-18T09:55:26.399Z,99322.03
2022-12-18T09:57:32.144Z,99328.88
2022-12-18T09:59:38.416Z,99319.44
2022-12-18T10:01:44.462Z,99322.72
2022-12-18T10:03:47.773Z,99321.75
2022-12-18T10:05:59.478Z,99323.38
2022-12-18T10:08:04.816Z,99316.44
2022-12-18T10:10:16.931Z,99306.16
2022-12-18T10:12:24.952Z,99295.88
2022-12-18T10:14:32.671Z,99303.63
2022-12-18T10:16:40.907Z,99307.09
2022-12-18T10:19:04.366Z,99308.00
2022-12-18T10:21:12.885Z,99314.78
2022-12-18T10:23:20.148Z,99310.47
2022-12-18T10:25:27.844Z,99312.09
2022-12-18T10:27:31.139Z,99303.53
2022-12-18T10:29:34.285Z,99307.75
2022-12-18T10:31:37.387Z,99312.03
2022-12-18T10:33:40.635Z,99315.44
2022-12-18T10:35:44.294Z,99320.56
2022-12-18T10:38:18.330Z,99316.25
2022-12-18T10:40:25.736Z,99314.50
2022-12-18T10:42:30.142Z,99315.31
2022-12-18T10:44:33.235Z,99314.41
2022-12-18T10:46:36.636Z,99311.75
2022-12-18T10:48:43.935Z,99322.78
2022-12-18T10:53:20.967Z,99334.00
2022-12-18T10:55:24.081Z,99328.84
2022-12-18T10:57:36.591Z,99332.22
2022-12-18T10:59:54.016Z,99329.59
2022-12-18T11:01:58.524Z,99339.00
2022-12-18T11:04:19.189Z,99322.69
2022-12-18T11:06:25.647Z,99321.00
2022-12-18T11:08:28.678Z,99315.00
2022-12-18T11:10:34.007Z,99311.56
2022-12-18T11:12:38.434Z,99302.09
2022-12-18T11:14:47.399Z,99303.00
2022-12-18T11:17:24.218Z,99300.38
2022-12-18T11:19:25.278Z,99301.19
2022-12-18T11:21:28.293Z,99296.84
2022-12-18T11:23:31.338Z,99289.13
2022-12-18T11:25:36.180Z,99292.53
2022-12-18T11:27:41.272Z,99286.47
2022-12-18T11:29:46.750Z,99281.22
2022-12-18T11:31:50.250Z,99288.81
2022-12-18T11:36:28.196Z,99280.94
2022-12-18T11:38:33.503Z,99280.84
2022-12-18T11:40:41.342Z,99280.81
2022-12-18T11:42:48.707Z,99284.25
2022-12-18T11:44:54.847Z,99277.44
2022-12-18T11:47:02.556Z,99283.31
2022-12-18T11:49:09.364Z,99266.13
2022-12-18T11:51:17.014Z,99263.53
2022-12-18T11:53:26.877Z,99263.63
2022-12-18T11:55:39.908Z,99267.94
2022-12-18T11:57:52.007Z,99266.25
2022-12-18T11:59:59.315Z,99259.53
2022-12-18T12:02:13.672Z,99254.63
2022-12-18T12:04:39.533Z,99249.53
2022-12-18T12:06:48.855Z,99245.09
2022-12-18T12:09:02.807Z,99247.59
2022-12-18T12:11:10.187Z,99250.97
2022-12-18T12:13:24.024Z,99242.53
2022-12-18T12:15:36.800Z,99232.25
2022-12-18T12:17:44.962Z,99230.56
2022-12-18T12:19:52.766Z,99233.06
2022-12-18T12:22:01.963Z,99227.09
2022-12-18T12:24:13.412Z,99227.16
2022-12-18T12:26:20.339Z,99221.25
2022-12-18T12:28:36.298Z,99218.00
2022-12-18T12:30:50.659Z,99226.53
2022-12-18T12:33:09.539Z,99227.38
2022-12-18T12:35:25.968Z,99220.44
2022-12-18T12:37:36.371Z,99220.41
2022-12-18T12:39:47.987Z,99228.03
2022-12-18T12:42:08.829Z,99228.00
2022-12-18T12:44:18.849Z,99229.69
2022-12-18T12:46:23.922Z,99233.94
2022-12-18T12:48:36.801Z,99230.38
2022-12-18T12:50:40.564Z,99237.09
2022-12-18T12:52:46.414Z,99227.53
2022-12-18T12:54:50.343Z,99226.53
2022-12-18T12:57:00.117Z,99228.13
2022-12-18T12:59:08.030Z,99239.22
2022-12-18T13:01:23.382Z,99236.66
2022-12-18T13:03:44.251Z,99244.41
2022-12-18T13:05:51.007Z,99232.56
2022-12-18T13:07:58.508Z,99225.75
2022-12-18T13:10:34.486Z,99231.75
2022-12-18T13:12:55.735Z,99233.47
2022-12-18T13:15:14.611Z,99236.00
2022-12-18T13:17:30.265Z,99230.06
2022-12-18T13:19:33.387Z,99238.59
2022-12-18T13:21:59.799Z,99239.41
2022-12-18T13:24:18.326Z,99224.03
2022-12-18T13:26:35.677Z,99234.31
2022-12-18T13:28:59.896Z,99229.13
2022-12-18T13:31:03.653Z,99231.75
2022-12-18T13:34:09.390Z,99229.97
2022-12-18T13:36:15.542Z,99238.56
2022-12-18T13:38:23.590Z,99233.38
2022-12-18T13:40:59.974Z,99218.00
2022-12-18T13:43:26.795Z,99222.28
2022-12-18T13:45:50.502Z,99221.50
2022-12-18T13:48:06.036Z,99216.31
2022-12-18T13:50:22.721Z,99216.22
2022-12-18T13:52:28.009Z,99212.81
2022-12-18T13:54:35.481Z,99211.13
2022-12-18T13:56:46.123Z,99208.59
2022-12-18T13:59:08.059Z,99220.66
2022-12-18T14:01:24.325Z,99219.81
2022-12-18T14:03:29.489Z,99215.56
2022-12-18T14:05:36.249Z,99213.00
2022-12-18T14:07:58.475Z,99215.63
2022-12-18T14:13:02.204Z,99214.75
2022-12-18T14:15:08.993Z,99222.53
2022-12-18T14:17:16.832Z,99219.94
2022-12-18T14:19:21.123Z,99231.03
2022-12-18T14:21:28.411Z,99226.84
2022-12-18T14:23:34.081Z,99229.47
2022-12-18T14:25:37.137Z,99233.81
2022-12-18T14:30:02.757Z,99229.56
2022-12-18T14:32:17.057Z,99242.41
2022-12-18T14:34:21.263Z,99241.59
2022-12-18T14:36:28.492Z,99238.19
2022-12-18T14:38:32.517Z,99234.03
2022-12-18T14:40:35.701Z,99234.09
2022-12-18T14:42:39.047Z,99224.75
2022-12-18T14:45:05.247Z,99222.25
2022-12-18T14:47:05.445Z,99223.16
2022-12-18T14:49:22.910Z,99219.72
2022-12-18T14:51:30.760Z,99224.91
2022-12-18T14:53:40.283Z,99233.53
2022-12-18T14:55:48.331Z,99225.03
2022-12-18T14:58:06.412Z,99223.44
2022-12-18T15:00:18.215Z,99226.91
2022-12-18T15:02:24.637Z,99226.19
2022-12-18T15:04:30.414Z,99223.69
2022-12-18T15:06:36.707Z,99221.16
2022-12-18T15:08:39.925Z,99230.63
2022-12-18T15:10:49.017Z,99222.06
2022-12-18T15:13:34.599Z,99216.97
2022-12-18T15:15:49.658Z,99221.34
2022-12-18T15:17:59.299Z,99212.91
2022-12-18T15:20:04.215Z,99212.97
2022-12-18T15:22:26.873Z,99220.66
2022-12-18T15:24:33.532Z,99224.09
2022-12-18T15:26:39.260Z,99219.91
2022-12-18T15:28:46.576Z,99216.56
2022-12-18T15:31:24.061Z,99210.66
2022-12-18T15:33:29.255Z,99203.81
2022-12-18T15:35:32.354Z,99203.91
2022-12-18T15:37:36.848Z,99199.69
2022-12-18T15:39:40.597Z,99198.06
2022-12-18T15:42:04.920Z,99198.09
2022-12-18T15:44:23.237Z,99200.72
2022-12-18T15:46:42.399Z,99201.66
2022-12-18T15:48:46.600Z,99205.13
2022-12-18T15:50:50.073Z,99207.72
2022-12-18T15:52:54.750Z,99201.81
2022-12-18T15:55:15.244Z,99193.34
2022-12-18T15:57:25.221Z,99201.84
2022-12-18T15:59:29.416Z,99201.03
2022-12-18T16:01:38.193Z,99197.59
2022-12-18T16:03:49.275Z,99195.97
2022-12-18T16:05:52.419Z,99197.69
2022-12-18T16:11:38.764Z,99202.78
2022-12-18T16:13:42.492Z,99209.63
2022-12-18T16:15:46.101Z,99212.19
2022-12-18T16:18:00.903Z,99214.75
2022-12-18T16:20:06.124Z,99205.34
2022-12-18T16:22:24.887Z,99202.78
2022-12-18T16:24:29.769Z,99204.50
2022-12-18T16:26:35.881Z,99211.34
2022-12-18T16:28:57.144Z,99208.81
2022-12-18T16:31:00.411Z,99209.66
2022-12-18T16:33:03.743Z,99201.13
2022-12-18T16:35:11.561Z,99203.69
2022-12-18T16:37:16.249Z,99204.56
2022-12-18T16:39:19.539Z,99203.72
2022-12-18T16:41:35.160Z,99196.94
2022-12-18T16:43:41.915Z,99190.19
2022-12-18T16:45:45.356Z,99194.44
2022-12-18T16:47:48.468Z,99195.31
2022-12-18T16:49:53.250Z,99188.53
2022-12-18T16:52:02.968Z,99193.66
2022-12-18T16:54:10.916Z,99188.56
2022-12-18T16:56:15.734Z,99185.97
2022-12-18T16:58:18.736Z,99181.72
2022-12-18T17:00:22.810Z,99186.00
2022-12-18T17:02:28.244Z,99188.56
2022-12-18T17:04:31.842Z,99187.72
2022-12-18T17:06:36.695Z,99180.06
2022-12-18T17:08:41.249Z,99187.75
2022-12-18T17:10:44.607Z,99187.72
2022-12-18T17:12:55.239Z,99188.56
2022-12-18T17:14:58.431Z,99186.84
2022-12-18T17:19:26.325Z,99184.28
2022-12-18T17:21:29.792Z,99187.72
2022-12-18T17:23:34.386Z,99188.56
2022-12-18T17:25:40.904Z,99184.31
2022-12-18T17:27:44.164Z,99179.19
2022-12-18T17:29:49.132Z,99177.47
2022-12-18T17:31:52.713Z,99174.03
2022-12-18T17:33:57.817Z,99166.34
2022-12-18T17:36:01.120Z,99168.94
2022-12-18T17:38:04.236Z,99164.69
2022-12-18T17:40:08.833Z,99168.09
2022-12-18T17:42:15.159Z,99164.72
2022-12-18T17:44:19.480Z,99173.22
2022-12-18T17:46:23.003Z,99168.94
2022-12-18T17:48:26.814Z,99172.38
2022-12-18T17:50:30.497Z,99173.22
2022-12-18T17:52:36.413Z,99174.91
2022-12-18T17:54:42.363Z,99172.34
2022-12-18T17:56:45.929Z,99182.59
2022-12-18T17:58:51.403Z,99182.59
2022-12-18T18:00:54.534Z,99168.91
2022-12-18T18:02:58.369Z,99178.31
2022-12-18T18:05:01.570Z,99171.47
2022-12-18T18:07:04.757Z,99179.16
2022-12-18T18:09:16.711Z,99173.22
2022-12-18T18:11:39.826Z,99175.78
2022-12-18T18:14:00.694Z,99175.75
2022-12-18T18:16:06.001Z,99164.69
2022-12-18T18:18:09.244Z,99164.69
2022-12-18T18:20:22.308Z,99168.06
2022-12-18T18:22:26.234Z,99167.19
2022-12-18T18:24:29.832Z,99164.63
2022-12-18T18:27:01.956Z,99157.78
2022-12-18T18:29:06.823Z,99174.84
2022-12-18T18:31:13.069Z,99168.81
2022-12-18T18:33:19.303Z,99169.69
2022-12-18T18:35:52.399Z,99167.13
2022-12-18T18:37:45.879Z,99166.22
2022-12-18T18:40:07.462Z,99163.66
2022-12-18T18:42:11.113Z,99162.78
2022-12-18T18:44:14.222Z,99155.94
2022-12-18T18:46:19.130Z,99145.72
2022-12-18T18:48:22.242Z,99155.06
2022-12-18T18:50:26.575Z,99159.28
2022-12-18T18:52:31.932Z,99156.69
2022-12-18T18:54:35.252Z,99143.88
2022-12-18T18:57:11.715Z,99139.63
2022-12-18T18:59:01.899Z,99137.03
2022-12-18T19:01:07.038Z,99131.91
2022-12-18T19:03:12.270Z,99138.69
2022-12-18T19:05:15.863Z,99128.38
2022-12-18T19:07:30.251Z,99140.31
2022-12-18T19:09:34.804Z,99138.56
2022-12-18T19:11:55.197Z,99132.63
2022-12-18T19:14:19.348Z,99148.00
2022-12-18T19:16:22.712Z,99133.50
2022-12-18T19:18:29.166Z,99127.59
2022-12-18T19:20:32.664Z,99135.25
2022-12-18T19:22:36.292Z,99136.09
2022-12-18T19:24:39.882Z,99157.44
2022-12-18T19:26:43.670Z,99160.00
2022-12-18T19:28:47.609Z,99163.41
2022-12-18T19:30:58.880Z,99168.53
2022-12-18T19:33:19.995Z,99166.78
2022-12-18T19:35:27.219Z,99157.44
2022-12-18T19:37:30.766Z,99159.13
2022-12-18T19:39:49.339Z,99161.66
2022-12-18T19:41:52.894Z,99157.41
2022-12-18T19:43:56.068Z,99153.97
2022-12-18T19:45:59.685Z,99136.91
2022-12-18T19:48:04.533Z,99136.03
2022-12-18T19:50:09.327Z,99129.22
2022-12-18T19:52:35.487Z,99130.91
2022-12-18T19:54:38.786Z,99126.66
2022-12-18T19:56:41.829Z,99123.22
2022-12-18T19:58:45.910Z,99119.81
2022-12-18T20:00:58.285Z,99116.44
2022-12-18T20:03:10.042Z,99107.88
2022-12-18T20:05:27.952Z,99107.91
2022-12-18T20:07:31.187Z,99102.81
2022-12-18T20:09:53.948Z,99104.50
2022-12-18T20:12:02.748Z,99092.50
2022-12-18T20:14:06.582Z,99092.50
2022-12-18T20:16:10.463Z,99092.47
2022-12-18T20:18:13.604Z,99089.00
2022-12-18T20:20:17.165Z,99095.81
2022-12-18T20:22:21.705Z,99079.59
2022-12-18T20:24:24.821Z,99081.31
2022-12-18T20:26:29.611Z,99076.19
2022-12-18T20:28:34.443Z,99077.06
2022-12-18T20:30:38.120Z,99071.09
2022-12-18T20:32:41.200Z,99078.81
2022-12-18T20:34:44.317Z,99072.91
2022-12-18T20:37:13.349Z,99067.75
2022-12-18T20:39:17.825Z,99060.97
2022-12-18T20:41:22.524Z,99056.72
2022-12-18T20:43:27.052Z,99049.06
2022-12-18T20:45:30.239Z,99045.72
2022-12-18T20:47:34.072Z,99052.59
2022-12-18T20:49:37.538Z,99046.59
2022-12-18T20:51:42.617Z,99038.91
2022-12-18T20:53:46.451Z,99040.59
2022-12-18T20:56:17.756Z,99044.09
2022-12-18T20:58:26.027Z,99038.19
2022-12-18T21:00:29.139Z,99035.66
2022-12-18T21:02:32.656Z,99034.81
2022-12-18T21:04:51.330Z,99034.88
2022-12-18T21:07:00.557Z,99030.63
2022-12-18T21:09:06.343Z,99041.69
2022-12-18T21:11:31.236Z,99045.09
2022-12-18T21:13:37.194Z,99064.72
2022-12-18T21:15:40.205Z,99067.25
2022-12-18T21:17:44.952Z,99063.84
2022-12-18T21:19:50.798Z,99061.31
2022-12-18T21:21:54.907Z,99061.31
2022-12-18T21:23:57.944Z,99045.94
2022-12-18T21:26:16.932Z,99029.72
2022-12-18T21:28:22.125Z,99025.44
2022-12-18T21:30:26.561Z,99029.72
2022-12-18T21:32:30.924Z,99043.34
2022-12-18T21:34:37.056Z,99050.19
2022-12-18T21:36:40.417Z,99049.31
2022-12-18T21:38:43.504Z,99046.75
2022-12-18T21:40:47.471Z,99039.00
2022-12-18T21:43:08.373Z,99030.47
2022-12-18T21:45:12.100Z,99033.88
2022-12-18T21:47:21.805Z,99044.06
2022-12-18T21:49:26.526Z,99055.16
2022-12-18T21:51:29.856Z,99053.44
2022-12-18T21:53:32.978Z,99053.44
2022-12-18T21:55:36.130Z,99058.56
2022-12-18T21:57:39.959Z,99042.28
2022-12-18T21:59:44.160Z,99042.25
2022-12-18T22:01:47.917Z,99043.13
2022-12-18T22:03:53.049Z,99061.91
2022-12-18T22:06:07.615Z,99059.31
2022-12-18T22:08:13.609Z,99061.06
2022-12-18T22:12:43.812Z,99049.94
2022-12-18T22:14:51.100Z,99032.00
2022-12-18T22:16:55.867Z,99015.69
2022-12-18T22:19:00.556Z,99028.50
2022-12-18T22:21:03.659Z,99038.75
2022-12-18T22:23:06.852Z,99030.22
2022-12-18T22:25:10.818Z,99025.09
2022-12-18T22:27:13.834Z,99035.31
2022-12-18T22:32:03.726Z,99041.28
2022-12-18T22:34:08.675Z,99045.56
2022-12-18T22:36:11.777Z,99038.72
2022-12-18T22:38:14.740Z,99032.75
2022-12-18T22:40:23.892Z,99030.22
2022-12-18T22:42:28.810Z,99026.88
2022-12-18T22:44:31.833Z,99027.69
2022-12-18T22:46:36.894Z,99025.13
2022-12-18T22:48:40.017Z,99020.00
2022-12-18T22:50:44.367Z,99019.19
2022-12-18T22:52:47.374Z,99025.97
2022-12-18T22:55:02.598Z,99032.81
2022-12-18T22:57:05.817Z,99031.97
2022-12-18T22:59:09.152Z,99031.94
2022-12-18T23:01:20.737Z,99036.19
2022-12-18T23:03:23.996Z,99038.72
2022-12-18T23:05:30.938Z,99028.53
2022-12-18T23:07:35.608Z,99020.06
2022-12-18T23:09:39.079Z,99024.34
2022-12-18T23:11:42.154Z,99025.97
2022-12-18T23:13:45.461Z,99025.94
2022-12-18T23:15:48.510Z,99025.94
2022-12-18T23:17:52.035Z,99031.91
2022-12-18T23:19:55.053Z,99040.41
2022-12-18T23:21:59.034Z,99048.91
2022-12-18T23:24:03.409Z,99047.16
2022-12-18T23:26:08.526Z,99048.03
2022-12-18T23:28:11.564Z,99039.47
2022-12-18T23:30:26.587Z,99047.13
2022-12-18T23:32:29.624Z,99041.97
2022-12-18T23:34:34.748Z,99045.44
2022-12-18T23:36:46.251Z,99043.69
2022-12-18T23:38:51.095Z,99036.00
2022-12-18T23:41:11.896Z,99024.91
2022-12-18T23:43:14.922Z,99030.84
2022-12-18T23:45:18.454Z,99022.31
2022-12-18T23:47:21.565Z,99017.16
2022-12-18T23:49:24.544Z,99017.16
2022-12-18T23:51:29.060Z,99028.25
2022-12-18T23:53:32.184Z,99037.63
2022-12-18T23:56:07.439Z,99035.06
2022-12-18T23:58:17.353Z,99041.00
